Time;durP1;ratioP1;P1;durP2;ratioP2;P2;SDS_P1;SDS_P2;PMS_P1;PMS_P2;Temp;Humidity;BMP_temperature;BMP_pressure;BME280_temperature;BME280_humidity;BME280_pressure;Samples;Min_cycle;Max_cycle;Signal;HPM_P1;HPM_P2
2022/08/10 00:01:40;;;;;;;11.70;5.80;;;;;;;16.07;91.89;101574.56;658610;1277;22537;-80
2022/08/10 00:16:43;;;;;;;9.50;5.90;;;;;;;15.90;92.26;101571.44;658490;1277;22586;-80
2022/08/10 00:31:46;;;;;;;7.40;4.60;;;;;;;15.63;93.02;101572.24;659391;1277;30755;-81
2022/08/10 00:47:01;;;;;;;11.10;6.10;;;;;;;15.47;93.56;101570.80;659313;1277;24479;-82
2022/08/10 01:02:05;;;;;;;10.10;5.30;;;;;;;15.30;93.91;101576.77;657918;1277;24311;-81
2022/08/10 01:17:48;;;;;;;13.80;6.80;;;;;;;15.26;94.88;101578.34;658332;1277;139525;-81
2022/08/10 01:33:00;;;;;;;;;;;;;;;15.29;96.11;101581.58;656174;1277;140159;-81
2022/08/10 02:03:30;;;;;;;12.30;6.30;;;;;;;15.03;96.16;101583.98;656688;1277;139427;-82
2022/08/10 02:18:34;;;;;;;6.30;5.20;;;;;;;15.02;97.49;101591.11;656034;1279;140238;-81
2022/08/10 02:33:41;;;;;;;122.70;51.80;;;;;;;14.92;97.37;101591.45;656328;1277;139557;-81
2022/08/10 02:49:02;;;;;;;21.20;11.90;;;;;;;14.76;98.35;101592.09;665733;1277;140296;-81
2022/08/10 03:04:34;;;;;;;13.90;8.70;;;;;;;14.61;98.26;101590.88;657800;1277;139322;-80
2022/08/10 03:20:00;;;;;;;32.10;13.70;;;;;;;14.40;98.46;101589.29;656665;1277;139781;-80
2022/08/10 03:35:25;;;;;;;9.60;6.50;;;;;;;14.29;98.21;101599.83;655165;1277;139411;-81
2022/08/10 03:50:29;;;;;;;11.80;6.40;;;;;;;14.26;97.66;101612.64;656082;1277;140470;-81
2022/08/10 04:05:52;;;;;;;11.70;5.90;;;;;;;14.24;97.75;101616.30;657633;1277;139985;-81
2022/08/10 04:21:03;;;;;;;19.00;7.70;;;;;;;14.32;98.51;101620.41;658185;1277;139876;-81
2022/08/10 04:36:10;;;;;;;8.50;6.10;;;;;;;14.68;99.62;101621.11;657632;1278;139619;-81
2022/08/10 04:51:17;;;;;;;9.10;5.90;;;;;;;15.04;99.86;101635.02;656342;1278;140146;-81
2022/08/10 05:06:22;;;;;;;9.40;6.60;;;;;;;15.56;100.00;101637.92;657244;1279;140022;-81
2022/08/10 05:21:26;;;;;;;13.00;7.20;;;;;;;16.22;100.00;101641.16;657060;1275;139956;-80
2022/08/10 05:36:50;;;;;;;10.70;7.30;;;;;;;16.88;100.00;101643.22;657215;1277;140725;-81
2022/08/10 05:51:53;;;;;;;10.00;6.80;;;;;;;17.51;100.00;101651.45;657092;1277;139662;-81
2022/08/10 06:07:00;;;;;;;10.70;6.90;;;;;;;18.13;100.00;101646.54;657732;1277;140465;-81
2022/08/10 06:22:04;;;;;;;12.20;6.60;;;;;;;18.83;100.00;101646.61;657540;1277;140233;-82
2022/08/10 06:37:09;;;;;;;9.10;5.20;;;;;;;19.50;100.00;101641.92;657452;1277;140124;-82
2022/08/10 06:52:14;;;;;;;7.20;4.20;;;;;;;20.27;99.38;101643.88;662565;1277;140000;-82
2022/08/10 07:07:25;;;;;;;4.70;3.50;;;;;;;21.22;97.63;101650.77;658155;1277;139230;-83
2022/08/10 07:22:34;;;;;;;6.90;3.20;;;;;;;22.00;89.23;101653.94;658176;1277;140132;-82
2022/08/10 07:38:01;;;;;;;4.60;2.60;;;;;;;23.14;85.82;101660.09;656709;1277;139522;-81
2022/08/10 07:53:11;;;;;;;3.40;2.10;;;;;;;24.41;81.98;101657.31;656507;1277;139497;-82
2022/08/10 08:08:16;;;;;;;3.80;2.50;;;;;;;25.36;77.43;101661.49;657765;1277;139991;-83
2022/08/10 08:23:21;;;;;;;2.30;1.90;;;;;;;26.16;72.96;101656.76;657999;1277;139683;-84
2022/08/10 08:38:47;;;;;;;1.90;1.50;;;;;;;26.47;68.28;101650.39;657051;1277;138849;-85
2022/08/10 08:54:09;;;;;;;7.10;3.80;;;;;;;26.89;64.12;101635.48;656340;1276;138892;-85
2022/08/10 09:09:41;;;;;;;3.20;1.70;;;;;;;27.53;61.62;101627.23;658119;1277;138421;-84
2022/08/10 09:24:53;;;;;;;1.50;1.40;;;;;;;28.37;60.91;101616.52;657599;1277;138335;-83
2022/08/10 09:40:04;;;;;;;2.80;2.00;;;;;;;28.14;59.45;101616.38;657895;1277;1424411;-82
2022/08/10 09:55:57;;;;;;;10.80;2.20;;;;;;;27.33;59.67;101615.23;658171;1277;140206;-81
2022/08/10 10:11:42;;;;;;;1.90;0.90;;;;;;;27.39;59.40;101587.09;656171;1277;138783;-80
2022/08/10 10:27:00;;;;;;;21.80;10.00;;;;;;;28.52;56.51;101569.54;656444;1277;139336;-80
2022/08/10 10:42:43;;;;;;;3.10;1.80;;;;;;;29.67;54.11;101564.33;659743;1277;138745;-81
2022/08/10 10:57:59;;;;;;;3.00;1.60;;;;;;;29.66;53.79;101560.84;658008;1276;139469;-81
2022/08/10 11:13:34;;;;;;;3.30;1.10;;;;;;;29.36;52.54;101544.92;661096;1277;140738;-82
2022/08/10 11:29:07;;;;;;;1.20;0.90;;;;;;;29.14;51.04;101530.61;659199;1277;22544;-84
2022/08/10 11:44:40;;;;;;;1.40;0.90;;;;;;;29.81;49.74;101522.16;658542;1277;22705;-83
2022/08/10 11:59:56;;;;;;;1.50;0.90;;;;;;;30.32;46.31;101508.05;658683;1276;22837;-83
2022/08/10 12:15:02;;;;;;;;;;;;;;;30.98;46.24;101500.01;659047;1277;22777;-82
2022/08/10 12:30:13;;;;;;;2.90;1.10;;;;;;;31.33;46.06;101489.52;657902;1277;23123;-85
2022/08/10 12:45:43;;;;;;;2.60;1.10;;;;;;;30.83;46.12;101474.71;657383;1277;26467;-83
2022/08/10 13:00:53;;;;;;;1.30;1.00;;;;;;;31.68;43.71;101456.34;657123;1277;24265;-80
2022/08/10 13:16:23;;;;;;;4.70;1.30;;;;;;;32.12;43.36;101449.52;663769;1277;25371;-80
2022/08/10 13:31:41;;;;;;;3.90;1.80;;;;;;;32.04;43.07;101433.20;657454;1277;22584;-80
2022/08/10 13:47:13;;;;;;;1.40;0.90;;;;;;;32.39;42.30;101413.83;660644;1277;22721;-81
2022/08/10 14:02:45;;;;;;;1.50;1.00;;;;;;;31.74;42.76;101413.99;656738;1277;23642;-80
2022/08/10 14:17:56;;;;;;;1.90;1.00;;;;;;;30.89;44.47;101411.62;657644;1277;22543;-81
2022/08/10 14:33:15;;;;;;;1.10;1.00;;;;;;;35.29;42.96;101401.55;658189;1279;22568;-82
2022/08/10 14:48:29;;;;;;;;;;;;;;;39.52;37.68;101387.15;658490;1277;24324;-82
2022/08/10 15:03:42;;;;;;;1.80;0.90;;;;;;;35.42;40.04;101374.45;656988;1277;22543;-82
2022/08/10 15:19:10;;;;;;;10.30;6.60;;;;;;;31.93;43.05;101356.27;660265;1277;22705;-82
2022/08/10 15:50:35;;;;;;;3.10;2.30;;;;;;;31.28;45.15;101338.33;657589;1277;31001;-83
2022/08/10 16:05:51;;;;;;;1.60;1.40;;;;;;;31.16;46.54;101346.95;657609;1277;25397;-82
2022/08/10 16:21:20;;;;;;;2.30;1.70;;;;;;;29.85;49.64;101353.27;657316;1277;29805;-80
2022/08/10 16:36:56;;;;;;;12.80;3.40;;;;;;;29.10;51.54;101349.91;661241;1277;22900;-85
2022/08/10 16:52:10;;;;;;;8.00;3.30;;;;;;;29.23;52.77;101350.93;659029;1277;30717;-85
2022/08/10 17:07:25;;;;;;;3.70;1.90;;;;;;;28.93;54.04;101352.95;659182;1277;22554;-84
2022/08/10 17:22:46;;;;;;;2.60;1.90;;;;;;;28.31;55.16;101358.63;660001;1277;24251;-84
2022/08/10 17:38:23;;;;;;;3.70;1.90;;;;;;;27.78;56.52;101354.40;656041;1277;22559;-83
2022/08/10 17:53:34;;;;;;;2.90;1.90;;;;;;;27.19;57.48;101357.41;656704;1277;138350;-82
2022/08/10 18:08:51;;;;;;;19.10;11.90;;;;;;;26.19;59.63;101368.91;655681;1277;138219;-84
2022/08/10 18:24:02;;;;;;;23.80;8.80;;;;;;;25.22;63.31;101388.98;656774;1277;138645;-83
2022/08/10 18:39:09;;;;;;;11.70;4.50;;;;;;;24.33;67.56;101402.52;656836;1277;138700;-84
2022/08/10 18:54:27;;;;;;;11.60;5.00;;;;;;;24.00;67.95;101405.61;656296;1277;138691;-83
2022/08/10 19:10:07;;;;;;;7.10;4.30;;;;;;;23.58;69.82;101420.41;656924;1277;140230;-84
2022/08/10 19:25:21;;;;;;;12.60;6.00;;;;;;;23.25;70.27;101438.15;657771;1277;138225;-83
2022/08/10 19:41:06;;;;;;;8.80;5.10;;;;;;;22.96;70.45;101442.64;657117;1277;138486;-84
2022/08/10 19:56:37;;;;;;;8.60;4.50;;;;;;;22.56;71.69;101443.33;657579;1277;138365;-84
2022/08/10 20:11:50;;;;;;;15.80;7.50;;;;;;;22.30;72.61;101432.68;657076;1278;139722;-84
2022/08/10 20:26:57;;;;;;;10.30;6.20;;;;;;;21.96;73.63;101433.39;658802;1277;139240;-84
2022/08/10 20:42:26;;;;;;;10.20;5.80;;;;;;;21.66;74.99;101425.86;658499;1277;22539;-85
2022/08/10 20:58:04;;;;;;;9.60;5.30;;;;;;;21.28;75.99;101431.95;663674;1277;139817;-84
2022/08/10 21:13:23;;;;;;;45.00;14.70;;;;;;;20.81;76.75;101434.21;656223;1277;138991;-85
2022/08/10 23:02:05;;;;;;;12.80;5.10;;;;;;;18.88;87.01;101414.46;663363;1278;140549;-84
2022/08/10 23:33:01;;;;;;;12.90;5.80;;;;;;;18.19;88.35;101404.80;656368;1278;139636;-84
2022/08/10 23:48:05;;;;;;;9.30;5.10;;;;;;;17.98;88.75;101399.52;657059;1277;140954;-83
